createdAt,value
2019-02-15T00:00:27.032Z,7.60
2019-02-15T00:01:27.017Z,7.60
2019-02-15T00:02:26.994Z,7.70
2019-02-15T00:03:26.980Z,7.90
2019-02-15T00:04:26.969Z,7.80
2019-02-15T00:05:26.952Z,7.80
2019-02-15T00:06:26.978Z,7.60
2019-02-15T00:07:26.932Z,7.80
2019-02-15T00:08:26.923Z,7.10
2019-02-15T00:09:26.937Z,7.80
2019-02-15T00:10:26.897Z,8.20
2019-02-15T00:11:26.892Z,8.10
2019-02-15T00:12:26.905Z,8.00
2019-02-15T00:13:26.874Z,8.10
2019-02-15T00:14:26.857Z,7.60
2019-02-15T00:15:26.886Z,7.80
2019-02-15T00:16:26.832Z,8.00
2019-02-15T00:17:26.851Z,8.30
2019-02-15T00:18:26.818Z,8.00
2019-02-15T00:19:26.805Z,8.30
2019-02-15T00:20:26.789Z,8.40
2019-02-15T00:21:26.783Z,8.30
2019-02-15T00:22:26.796Z,8.40
2019-02-15T00:23:26.754Z,8.40
2019-02-15T00:24:26.745Z,8.00
2019-02-15T00:25:26.738Z,7.70
2019-02-15T00:26:26.743Z,8.30
2019-02-15T00:27:26.714Z,7.80
2019-02-15T00:28:26.729Z,8.20
2019-02-15T00:29:26.688Z,8.00
2019-02-15T00:30:26.725Z,8.00
2019-02-15T00:31:26.686Z,7.50
2019-02-15T00:32:26.654Z,7.80
2019-02-15T00:33:26.676Z,8.10
2019-02-15T00:34:26.654Z,7.70
2019-02-15T00:35:26.624Z,8.10
2019-02-15T00:36:26.610Z,7.90
2019-02-15T00:37:26.600Z,7.30
2019-02-15T00:38:26.598Z,7.60
2019-02-15T00:39:26.599Z,7.90
2019-02-15T00:40:26.591Z,7.80
2019-02-15T00:41:26.556Z,8.10
2019-02-15T00:42:26.554Z,7.80
2019-02-15T00:43:26.538Z,7.30
2019-02-15T00:44:26.554Z,7.90
2019-02-15T00:45:26.532Z,7.80
2019-02-15T00:46:26.504Z,7.80
2019-02-15T00:47:26.546Z,7.80
2019-02-15T00:48:26.488Z,7.60
2019-02-15T00:49:26.479Z,7.80
2019-02-15T00:50:26.457Z,7.70
2019-02-15T00:51:26.445Z,7.50
2019-02-15T00:52:26.434Z,7.60
2019-02-15T00:53:26.445Z,8.00
2019-02-15T00:54:26.413Z,7.70
2019-02-15T00:55:26.423Z,7.90
2019-02-15T00:56:26.395Z,7.70
2019-02-15T00:57:26.378Z,7.60
2019-02-15T00:58:26.395Z,7.40
2019-02-15T00:59:26.362Z,7.80
2019-02-15T01:00:26.344Z,7.70
2019-02-15T01:01:26.338Z,7.70
2019-02-15T01:02:26.326Z,7.80
2019-02-15T01:03:26.330Z,7.90
2019-02-15T01:04:26.326Z,7.80
2019-02-15T01:05:26.293Z,7.70
2019-02-15T01:06:26.286Z,7.60
2019-02-15T01:07:26.266Z,7.50
2019-02-15T01:08:26.268Z,7.80
2019-02-15T01:09:26.276Z,7.80
2019-02-15T01:10:26.232Z,7.60
2019-02-15T01:11:26.228Z,7.30
2019-02-15T01:12:26.218Z,7.40
2019-02-15T01:13:31.051Z,7.60
2019-02-15T01:14:27.224Z,7.50
2019-02-15T01:15:26.183Z,7.60
2019-02-15T01:16:26.167Z,7.40
2019-02-15T01:17:26.160Z,7.40
2019-02-15T01:18:26.142Z,7.90
2019-02-15T01:19:26.135Z,7.90
2019-02-15T01:20:26.145Z,7.80
2019-02-15T01:21:26.112Z,7.40
2019-02-15T01:22:26.099Z,7.70
2019-02-15T01:23:26.116Z,7.60
2019-02-15T01:24:26.075Z,7.80
2019-02-15T01:25:26.107Z,7.50
2019-02-15T01:26:26.060Z,7.30
2019-02-15T01:27:26.047Z,7.50
2019-02-15T01:28:26.045Z,7.30
2019-02-15T01:29:26.026Z,7.50
2019-02-15T01:30:26.060Z,7.30
2019-02-15T01:31:26.023Z,7.80
2019-02-15T01:32:25.991Z,7.60
2019-02-15T01:33:25.984Z,7.30
2019-02-15T01:34:25.975Z,7.60
2019-02-15T01:35:25.960Z,7.40
2019-02-15T01:36:25.982Z,7.40
2019-02-15T01:37:25.943Z,7.50
2019-02-15T01:38:25.927Z,7.60
2019-02-15T01:39:25.916Z,7.50
2019-02-15T01:40:25.911Z,8.00
2019-02-15T01:41:25.892Z,7.50
2019-02-15T01:42:25.898Z,7.70
2019-02-15T01:43:25.876Z,7.50
2019-02-15T01:44:25.862Z,7.20
2019-02-15T01:45:25.878Z,7.60
2019-02-15T01:46:25.840Z,7.60
2019-02-15T01:47:25.868Z,7.20
2019-02-15T01:48:25.812Z,7.30
2019-02-15T01:49:25.804Z,7.20
2019-02-15T01:50:25.793Z,7.10
2019-02-15T01:51:25.800Z,7.40
2019-02-15T01:52:25.773Z,7.40
2019-02-15T01:53:25.774Z,7.70
2019-02-15T01:54:25.746Z,7.30
2019-02-15T01:55:25.746Z,7.10
2019-02-15T01:56:25.729Z,7.70
2019-02-15T01:57:25.712Z,7.40
2019-02-15T01:58:25.736Z,7.50
2019-02-15T01:59:25.691Z,7.40
2019-02-15T02:00:25.682Z,7.90
2019-02-15T02:01:25.690Z,7.10
2019-02-15T02:02:25.658Z,7.60
2019-02-15T02:03:25.663Z,7.70
2019-02-15T02:04:25.654Z,7.40
2019-02-15T02:05:25.648Z,7.70
2019-02-15T02:06:25.614Z,7.30
2019-02-15T02:07:25.624Z,7.80
2019-02-15T02:08:25.591Z,7.70
2019-02-15T02:09:25.607Z,7.40
2019-02-15T02:10:25.582Z,7.90
2019-02-15T02:11:25.556Z,7.50
2019-02-15T02:12:25.559Z,7.50
2019-02-15T02:13:25.540Z,7.00
2019-02-15T02:14:25.567Z,7.30
2019-02-15T02:15:25.533Z,7.50
2019-02-15T02:16:25.503Z,7.60
2019-02-15T02:17:25.493Z,7.40
2019-02-15T02:18:25.481Z,7.30
2019-02-15T02:19:25.507Z,7.30
2019-02-15T02:20:25.461Z,7.60
2019-02-15T02:21:25.453Z,7.30
2019-02-15T02:22:25.437Z,7.20
2019-02-15T02:23:25.440Z,7.70
2019-02-15T02:24:25.414Z,7.50
2019-02-15T02:25:25.464Z,7.40
2019-02-15T02:26:25.395Z,7.80
2019-02-15T02:27:25.387Z,8.00
2019-02-15T02:28:25.373Z,7.50
2019-02-15T02:29:25.386Z,7.20
2019-02-15T02:30:25.392Z,8.00
2019-02-15T02:31:25.363Z,8.10
2019-02-15T02:32:25.330Z,7.50
2019-02-15T02:33:25.314Z,7.50
2019-02-15T02:34:25.305Z,7.60
2019-02-15T02:35:25.299Z,7.80
2019-02-15T02:36:25.303Z,7.70
2019-02-15T02:37:25.281Z,8.00
2019-02-15T02:38:25.267Z,7.60
2019-02-15T02:39:25.254Z,8.10
2019-02-15T02:40:25.236Z,7.70
2019-02-15T02:41:25.258Z,7.50
2019-02-15T02:42:25.217Z,7.70
2019-02-15T02:43:25.219Z,7.60
2019-02-15T02:44:25.204Z,7.40
2019-02-15T02:45:25.202Z,7.60
2019-02-15T02:46:25.170Z,7.70
2019-02-15T02:47:25.176Z,7.70
2019-02-15T02:48:25.155Z,7.40
2019-02-15T02:49:25.149Z,7.80
2019-02-15T02:50:25.139Z,7.60
2019-02-15T02:51:25.141Z,8.00
2019-02-15T02:52:25.133Z,7.60
2019-02-15T02:53:25.104Z,7.60
2019-02-15T02:54:25.088Z,7.40
2019-02-15T02:55:25.084Z,7.90
2019-02-15T02:56:25.063Z,8.30
2019-02-15T02:57:25.081Z,7.70
2019-02-15T02:58:25.042Z,8.20
2019-02-15T02:59:25.028Z,7.60
2019-02-15T03:00:33.194Z,7.30
2019-02-15T03:01:26.002Z,7.60
2019-02-15T03:02:25.006Z,7.70
2019-02-15T03:03:25.011Z,7.90
2019-02-15T03:04:24.972Z,7.50
2019-02-15T03:05:24.970Z,7.70
2019-02-15T03:06:24.957Z,7.70
2019-02-15T03:07:24.946Z,7.70
2019-02-15T03:08:24.967Z,7.90
2019-02-15T03:09:24.919Z,8.40
2019-02-15T03:10:24.912Z,7.70
2019-02-15T03:11:24.897Z,7.30
2019-02-15T03:12:24.891Z,7.90
2019-02-15T03:13:24.875Z,8.00
2019-02-15T03:14:24.899Z,7.90
2019-02-15T03:15:24.858Z,8.10
2019-02-15T03:16:25.773Z,8.00
2019-02-15T03:17:24.842Z,8.10
2019-02-15T03:18:24.824Z,7.90
2019-02-15T03:19:24.843Z,7.90
2019-02-15T03:20:31.198Z,7.90
2019-02-15T03:21:25.788Z,7.60
2019-02-15T03:22:24.779Z,7.80
2019-02-15T03:23:24.769Z,8.20
2019-02-15T03:24:24.764Z,7.70
2019-02-15T03:25:24.770Z,8.50
2019-02-15T03:26:24.740Z,8.20
2019-02-15T03:27:24.729Z,8.70
2019-02-15T03:28:24.722Z,8.30
2019-02-15T03:29:24.702Z,8.30
2019-02-15T03:30:24.717Z,8.50
2019-02-15T03:31:24.687Z,8.20
2019-02-15T03:32:24.673Z,8.30
2019-02-15T03:33:24.676Z,8.00
2019-02-15T03:34:24.664Z,8.40
2019-02-15T03:35:24.683Z,7.70
2019-02-15T03:36:24.638Z,7.90
2019-02-15T03:37:24.623Z,8.00
2019-02-15T03:38:24.619Z,8.10
2019-02-15T03:39:24.614Z,7.90
2019-02-15T03:40:24.598Z,7.60
2019-02-15T03:41:24.611Z,7.70
2019-02-15T03:42:24.576Z,8.20
2019-02-15T03:43:24.562Z,7.70
2019-02-15T03:44:24.551Z,7.70
2019-02-15T03:45:24.540Z,7.90
2019-02-15T03:46:24.553Z,8.40
2019-02-15T03:47:24.513Z,8.00
2019-02-15T03:48:24.510Z,8.40
2019-02-15T03:49:24.505Z,8.00
2019-02-15T03:50:24.488Z,7.90
2019-02-15T03:51:24.499Z,7.90
2019-02-15T03:52:24.515Z,7.90
2019-02-15T03:53:24.458Z,7.70
2019-02-15T03:54:24.440Z,8.00
2019-02-15T03:55:24.423Z,7.10
2019-02-15T03:56:24.451Z,7.70
2019-02-15T03:57:24.408Z,7.70
2019-02-15T03:58:24.393Z,7.30
2019-02-15T03:59:24.384Z,7.50
2019-02-15T04:00:24.378Z,7.60
2019-02-15T04:01:24.390Z,7.50
2019-02-15T04:02:24.355Z,7.60
2019-02-15T04:03:24.348Z,7.40
2019-02-15T04:04:24.333Z,7.30
2019-02-15T04:05:24.325Z,7.30
2019-02-15T04:06:24.342Z,7.60
2019-02-15T04:07:24.301Z,7.30
2019-02-15T04:08:24.294Z,6.90
2019-02-15T04:09:24.272Z,7.40
2019-02-15T04:10:24.268Z,7.30
2019-02-15T04:11:24.255Z,7.00
2019-02-15T04:12:24.261Z,7.20
2019-02-15T04:13:24.241Z,6.80
2019-02-15T04:14:32.612Z,7.50
2019-02-15T04:15:25.208Z,7.20
2019-02-15T04:16:24.201Z,7.60
2019-02-15T04:17:24.222Z,8.00
2019-02-15T04:18:24.177Z,7.20
2019-02-15T04:19:24.174Z,7.60
2019-02-15T04:20:24.166Z,8.00
2019-02-15T04:21:24.142Z,7.60
2019-02-15T04:22:24.162Z,7.30
2019-02-15T04:23:24.146Z,7.30
2019-02-15T04:24:24.112Z,7.40
2019-02-15T04:25:24.099Z,7.40
2019-02-15T04:26:24.086Z,7.30
2019-02-15T04:27:24.084Z,7.50
2019-02-15T04:28:24.101Z,7.60
2019-02-15T04:29:24.055Z,7.40
2019-02-15T04:30:24.047Z,7.70
2019-02-15T04:31:24.030Z,7.90
2019-02-15T04:32:24.045Z,7.70
2019-02-15T04:33:24.012Z,7.70
2019-02-15T04:34:24.035Z,7.50
2019-02-15T04:35:24.007Z,7.80
2019-02-15T04:36:23.989Z,7.70
2019-02-15T04:37:23.971Z,8.00
2019-02-15T04:38:23.963Z,8.80
2019-02-15T04:39:23.974Z,8.00
2019-02-15T04:40:23.938Z,8.10
2019-02-15T04:41:23.951Z,8.50
2019-02-15T04:42:23.910Z,7.50
2019-02-15T04:43:23.905Z,7.70
2019-02-15T04:44:23.897Z,7.80
2019-02-15T04:45:23.901Z,8.40
2019-02-15T04:46:23.872Z,7.40
2019-02-15T04:47:23.862Z,7.60
2019-02-15T04:48:23.850Z,7.50
2019-02-15T04:49:23.850Z,7.70
2019-02-15T04:50:23.868Z,7.50
2019-02-15T04:51:23.820Z,7.80
2019-02-15T04:52:23.815Z,7.60
2019-02-15T04:53:23.795Z,7.90
2019-02-15T04:54:23.792Z,7.30
2019-02-15T04:55:23.789Z,7.30
2019-02-15T04:56:23.785Z,7.50
2019-02-15T04:57:23.754Z,7.30
2019-02-15T04:58:23.761Z,7.30
2019-02-15T04:59:23.735Z,7.90
2019-02-15T05:00:23.725Z,7.30
2019-02-15T05:01:23.762Z,7.80
2019-02-15T05:02:23.704Z,7.40
2019-02-15T05:03:23.722Z,7.10
2019-02-15T05:04:23.683Z,7.40
2019-02-15T05:05:23.674Z,7.50
2019-02-15T05:06:23.696Z,7.20
2019-02-15T05:07:23.659Z,7.40
2019-02-15T05:08:23.639Z,7.20
2019-02-15T05:09:24.102Z,7.70
2019-02-15T05:10:23.615Z,7.70
2019-02-15T05:11:23.625Z,7.20
2019-02-15T05:12:23.625Z,7.40
2019-02-15T05:13:23.582Z,7.10
2019-02-15T05:14:23.576Z,7.50
2019-02-15T05:15:23.575Z,7.20
2019-02-15T05:16:23.548Z,7.70
2019-02-15T05:17:23.594Z,7.40
2019-02-15T05:18:23.535Z,7.80
2019-02-15T05:19:23.517Z,7.50
2019-02-15T05:20:23.518Z,8.00
2019-02-15T05:21:23.498Z,7.80
2019-02-15T05:22:23.525Z,7.60
2019-02-15T05:23:23.479Z,7.80
2019-02-15T05:24:23.465Z,7.00
2019-02-15T05:25:23.493Z,7.70
2019-02-15T05:26:23.446Z,7.50
2019-02-15T05:27:23.452Z,7.50
2019-02-15T05:28:23.451Z,7.40
2019-02-15T05:29:23.429Z,7.40
2019-02-15T05:30:23.402Z,7.50
2019-02-15T05:31:23.391Z,7.30
2019-02-15T05:32:23.390Z,7.30
2019-02-15T05:33:23.415Z,7.30
2019-02-15T05:34:23.369Z,7.50
2019-02-15T05:35:23.379Z,7.10
2019-02-15T05:36:23.340Z,7.30
2019-02-15T05:37:23.330Z,7.20
2019-02-15T05:38:23.373Z,7.10
2019-02-15T05:39:23.311Z,7.60
2019-02-15T05:40:23.300Z,7.20
2019-02-15T05:41:23.290Z,7.20
2019-02-15T05:42:23.304Z,7.10
2019-02-15T05:43:23.264Z,7.30
2019-02-15T05:44:23.312Z,7.40
2019-02-15T05:45:23.246Z,7.30
2019-02-15T05:46:23.251Z,7.70
2019-02-15T05:47:23.230Z,7.60
2019-02-15T05:48:23.252Z,8.20
2019-02-15T05:49:23.231Z,7.60
2019-02-15T05:50:23.184Z,7.70
2019-02-15T05:51:23.189Z,7.30
2019-02-15T05:52:23.177Z,8.10
2019-02-15T05:53:23.176Z,7.80
2019-02-15T05:54:23.174Z,8.10
2019-02-15T05:55:23.198Z,7.70
2019-02-15T05:56:23.144Z,7.60
2019-02-15T05:57:23.120Z,7.70
2019-02-15T05:58:23.108Z,7.80
2019-02-15T05:59:23.095Z,8.00
2019-02-15T06:00:23.203Z,8.00
2019-02-15T06:01:23.067Z,7.20
2019-02-15T06:02:23.061Z,7.50
2019-02-15T06:03:23.084Z,7.80
2019-02-15T06:04:23.043Z,7.90
2019-02-15T06:05:23.050Z,7.90
2019-02-15T06:06:23.042Z,7.70
2019-02-15T06:07:23.003Z,7.40
2019-02-15T06:08:22.994Z,7.60
2019-02-15T06:09:22.985Z,7.60
2019-02-15T06:10:22.975Z,7.90
2019-02-15T06:11:22.992Z,7.40
2019-02-15T06:12:22.953Z,7.70
2019-02-15T06:13:22.943Z,7.70
2019-02-15T06:14:22.960Z,7.80
2019-02-15T06:15:22.921Z,7.50
2019-02-15T06:16:22.931Z,7.50
2019-02-15T06:17:22.903Z,7.70
2019-02-15T06:18:22.888Z,7.80
2019-02-15T06:19:22.880Z,7.80
2019-02-15T06:20:22.886Z,7.80
2019-02-15T06:21:22.862Z,7.50
2019-02-15T06:22:22.892Z,7.70
2019-02-15T06:23:22.838Z,7.40
2019-02-15T06:24:22.829Z,7.80
2019-02-15T06:25:22.846Z,8.10
2019-02-15T06:26:22.807Z,8.10
2019-02-15T06:27:22.798Z,7.70
2019-02-15T06:28:22.795Z,7.70
2019-02-15T06:29:22.770Z,7.60
2019-02-15T06:30:22.760Z,8.10
2019-02-15T06:31:22.782Z,8.50
2019-02-15T06:32:22.741Z,7.80
2019-02-15T06:33:22.730Z,7.30
2019-02-15T06:34:22.721Z,7.90
2019-02-15T06:35:22.719Z,7.90
2019-02-15T06:36:22.729Z,7.70
2019-02-15T06:37:22.738Z,7.90
2019-02-15T06:38:22.679Z,7.10
2019-02-15T06:39:22.667Z,7.90
2019-02-15T06:40:22.652Z,8.00
2019-02-15T06:41:22.650Z,7.60
2019-02-15T06:42:22.653Z,8.10
2019-02-15T06:43:22.625Z,7.90
2019-02-15T06:44:22.633Z,8.20
2019-02-15T06:45:25.186Z,7.90
2019-02-15T06:46:22.612Z,7.80
2019-02-15T06:47:22.607Z,7.70
2019-02-15T06:48:22.569Z,7.70
2019-02-15T06:49:22.562Z,7.80
2019-02-15T06:50:22.569Z,8.00
2019-02-15T06:51:22.536Z,7.70
2019-02-15T06:52:22.532Z,7.70
2019-02-15T06:53:22.542Z,7.70
2019-02-15T06:54:22.503Z,7.50
2019-02-15T06:55:22.502Z,7.80
2019-02-15T06:56:22.490Z,7.70
2019-02-15T06:57:22.481Z,8.00
2019-02-15T06:58:22.490Z,8.30
2019-02-15T06:59:22.458Z,7.80
2019-02-15T07:00:22.439Z,7.50
2019-02-15T07:01:22.437Z,7.70
2019-02-15T07:02:22.429Z,7.50
2019-02-15T07:03:22.419Z,7.80
2019-02-15T07:04:22.422Z,7.90
2019-02-15T07:05:22.397Z,7.60
2019-02-15T07:06:22.381Z,7.60
2019-02-15T07:07:22.373Z,7.90
2019-02-15T07:08:22.358Z,7.90
2019-02-15T07:09:22.401Z,8.00
2019-02-15T07:10:22.373Z,8.10
2019-02-15T07:11:22.333Z,7.60
2019-02-15T07:12:22.319Z,8.10
2019-02-15T07:13:22.313Z,7.90
2019-02-15T07:14:22.291Z,8.50
2019-02-15T07:15:22.323Z,8.30
2019-02-15T07:16:22.269Z,8.10
2019-02-15T07:17:22.263Z,8.10
2019-02-15T07:18:22.249Z,8.00
2019-02-15T07:19:22.283Z,8.40
2019-02-15T07:20:22.256Z,8.60
2019-02-15T07:21:22.221Z,8.20
2019-02-15T07:22:22.208Z,8.00
2019-02-15T07:23:22.212Z,8.50
2019-02-15T07:24:22.213Z,9.90
2019-02-15T07:25:22.175Z,8.80
2019-02-15T07:26:22.188Z,8.30
2019-02-15T07:27:22.165Z,8.80
2019-02-15T07:28:22.141Z,8.80
2019-02-15T07:29:22.182Z,8.30
2019-02-15T07:30:22.172Z,8.50
2019-02-15T07:31:22.108Z,8.20
2019-02-15T07:32:22.103Z,7.50
2019-02-15T07:33:22.095Z,7.60
2019-02-15T07:34:22.104Z,8.00
2019-02-15T07:35:22.102Z,7.60
2019-02-15T07:36:22.071Z,7.90
2019-02-15T07:37:22.059Z,7.70
2019-02-15T07:38:22.041Z,8.00
2019-02-15T07:39:22.027Z,7.70
2019-02-15T07:40:22.017Z,7.70
2019-02-15T07:41:22.060Z,7.70
2019-02-15T07:42:21.993Z,8.10
2019-02-15T07:43:21.999Z,7.90
2019-02-15T07:44:21.982Z,7.60
2019-02-15T07:45:22.714Z,7.70
2019-02-15T07:46:21.964Z,7.10
2019-02-15T07:47:21.956Z,7.50
2019-02-15T07:48:21.929Z,7.30
2019-02-15T07:49:26.901Z,7.60
2019-02-15T07:50:22.907Z,7.90
2019-02-15T07:51:21.905Z,7.80
2019-02-15T07:52:21.913Z,7.50
2019-02-15T07:53:21.878Z,7.40
2019-02-15T07:54:21.867Z,7.40
2019-02-15T07:55:21.853Z,7.30
2019-02-15T07:56:21.844Z,7.20
2019-02-15T07:57:21.856Z,7.70
2019-02-15T07:58:21.841Z,7.20
2019-02-15T07:59:21.816Z,7.40
2019-02-15T08:00:21.806Z,7.20
2019-02-15T08:01:21.830Z,7.70
2019-02-15T08:02:21.778Z,7.60
2019-02-15T08:03:21.818Z,7.50
2019-02-15T08:04:21.762Z,7.70
2019-02-15T08:05:23.434Z,8.00
2019-02-15T08:06:21.739Z,7.50
2019-02-15T08:07:21.742Z,7.80
2019-02-15T08:08:21.720Z,7.80
2019-02-15T08:09:21.728Z,7.70
2019-02-15T08:10:21.687Z,8.10
2019-02-15T08:11:21.687Z,7.70
2019-02-15T08:12:21.682Z,7.90
2019-02-15T08:13:21.659Z,7.50
2019-02-15T08:14:21.679Z,8.00
2019-02-15T08:15:21.649Z,7.90
2019-02-15T08:16:21.639Z,7.40
2019-02-15T08:17:21.659Z,7.50
2019-02-15T08:18:21.614Z,7.60
2019-02-15T08:19:22.603Z,7.50
2019-02-15T08:20:21.588Z,7.20
2019-02-15T08:21:21.567Z,7.20
2019-02-15T08:22:22.787Z,7.20
2019-02-15T08:23:21.564Z,7.40
2019-02-15T08:24:21.532Z,7.40
2019-02-15T08:25:21.532Z,7.40
2019-02-15T08:26:21.516Z,7.30
2019-02-15T08:27:21.536Z,7.00
2019-02-15T08:28:21.494Z,7.30
2019-02-15T08:29:21.486Z,7.20
2019-02-15T08:30:22.111Z,7.20
2019-02-15T08:31:21.516Z,7.30
2019-02-15T08:32:21.534Z,7.40
2019-02-15T08:33:21.463Z,6.80
2019-02-15T08:34:21.444Z,7.30
2019-02-15T08:35:21.420Z,7.10
2019-02-15T08:36:21.428Z,7.40
2019-02-15T08:37:21.414Z,7.20
2019-02-15T08:38:21.395Z,7.40
2019-02-15T08:39:21.367Z,7.30
2019-02-15T08:40:21.370Z,7.30
2019-02-15T08:41:21.360Z,6.90
2019-02-15T08:42:21.339Z,7.00
2019-02-15T08:43:21.345Z,7.30
2019-02-15T08:44:21.317Z,7.10
2019-02-15T08:45:21.316Z,7.10
2019-02-15T08:46:21.308Z,6.60
2019-02-15T08:47:21.281Z,7.60
2019-02-15T08:48:21.309Z,7.30
2019-02-15T08:49:21.269Z,7.10
2019-02-15T08:50:21.251Z,7.20
2019-02-15T08:51:21.237Z,7.30
2019-02-15T08:52:21.224Z,6.70
2019-02-15T08:53:21.240Z,7.00
2019-02-15T08:54:21.221Z,7.00
2019-02-15T08:55:21.198Z,6.80
2019-02-15T08:56:21.183Z,7.20
2019-02-15T08:57:21.172Z,6.70
2019-02-15T08:58:21.160Z,6.80
2019-02-15T08:59:21.174Z,6.80
2019-02-15T09:00:21.152Z,6.80
2019-02-15T09:01:21.130Z,6.80
2019-02-15T09:02:21.122Z,6.60
2019-02-15T09:03:22.118Z,6.70
2019-02-15T09:04:21.099Z,6.80
2019-02-15T09:05:21.107Z,6.80
2019-02-15T09:06:21.074Z,7.00
2019-02-15T09:07:21.077Z,6.60
2019-02-15T09:08:21.053Z,6.80
2019-02-15T09:09:21.040Z,6.20
2019-02-15T09:10:21.062Z,6.50
2019-02-15T09:11:21.021Z,6.70
2019-02-15T09:12:21.007Z,6.30
2019-02-15T09:13:21.112Z,6.50
2019-02-15T09:14:21.000Z,6.90
2019-02-15T09:15:20.972Z,6.60
2019-02-15T09:16:20.984Z,6.90
2019-02-15T09:17:20.951Z,6.70
2019-02-15T09:18:20.951Z,7.00
2019-02-15T09:19:20.949Z,7.40
2019-02-15T09:20:20.922Z,7.00
2019-02-15T09:21:20.911Z,7.00
2019-02-15T09:22:20.904Z,7.30
2019-02-15T09:23:20.890Z,6.90
2019-02-15T09:24:20.939Z,7.40
2019-02-15T09:25:20.867Z,7.00
2019-02-15T09:26:20.857Z,6.80
2019-02-15T09:27:20.844Z,7.10
2019-02-15T09:28:20.842Z,6.90
2019-02-15T09:29:20.871Z,7.20
2019-02-15T09:30:20.818Z,7.60
2019-02-15T09:31:20.823Z,7.30
2019-02-15T09:32:20.789Z,7.30
2019-02-15T09:33:20.802Z,7.10
2019-02-15T09:34:20.774Z,7.30
2019-02-15T09:35:20.814Z,7.30
2019-02-15T09:36:20.781Z,7.60
2019-02-15T09:37:20.736Z,7.60
2019-02-15T09:38:20.724Z,7.70
2019-02-15T09:39:20.723Z,8.00
2019-02-15T09:40:20.770Z,8.30
2019-02-15T09:41:20.696Z,8.40
2019-02-15T09:42:20.707Z,8.90
2019-02-15T09:43:20.670Z,9.20
2019-02-15T09:44:20.661Z,8.90
2019-02-15T09:45:20.663Z,8.80
2019-02-15T09:46:20.664Z,8.60
2019-02-15T09:47:20.625Z,8.10
2019-02-15T09:48:20.620Z,8.40
2019-02-15T09:49:22.286Z,7.80
2019-02-15T09:50:20.595Z,7.70
2019-02-15T09:51:20.616Z,7.10
2019-02-15T09:52:20.581Z,7.50
2019-02-15T09:53:20.599Z,7.50
2019-02-15T09:54:20.593Z,7.00
2019-02-15T09:55:20.540Z,7.20
2019-02-15T09:56:20.530Z,7.20
2019-02-15T09:57:20.520Z,7.20
2019-02-15T09:58:21.041Z,6.90
2019-02-15T09:59:20.540Z,6.90
2019-02-15T10:00:20.491Z,7.00
2019-02-15T10:01:20.476Z,7.10
2019-02-15T10:02:20.468Z,7.10
2019-02-15T10:03:20.463Z,7.00
2019-02-15T10:04:20.453Z,6.80
2019-02-15T10:05:20.496Z,6.60
2019-02-15T10:06:20.447Z,6.60
2019-02-15T10:07:20.419Z,6.70
2019-02-15T10:08:20.407Z,6.20
2019-02-15T10:09:20.402Z,6.50
2019-02-15T10:10:20.425Z,6.80
2019-02-15T10:11:20.367Z,6.40
2019-02-15T10:12:20.381Z,6.50
2019-02-15T10:13:20.349Z,6.40
2019-02-15T10:14:20.338Z,6.60
2019-02-15T10:15:20.360Z,6.60
2019-02-15T10:16:28.317Z,6.20
2019-02-15T10:17:21.306Z,6.40
2019-02-15T10:18:20.299Z,6.50
2019-02-15T10:19:22.332Z,6.40
2019-02-15T10:20:20.275Z,6.60
2019-02-15T10:21:20.278Z,6.20
2019-02-15T10:22:20.273Z,6.30
2019-02-15T10:23:20.249Z,6.60
2019-02-15T10:24:20.227Z,6.40
2019-02-15T10:25:20.217Z,6.90
2019-02-15T10:26:20.241Z,6.90
2019-02-15T10:27:20.199Z,6.70
2019-02-15T10:28:20.218Z,6.10
2019-02-15T10:29:20.171Z,6.50
2019-02-15T10:30:20.164Z,6.60
2019-02-15T10:31:20.148Z,6.00
2019-02-15T10:32:20.148Z,6.20
2019-02-15T10:33:20.155Z,6.10
2019-02-15T10:34:20.161Z,6.40
2019-02-15T10:35:20.119Z,6.60
2019-02-15T10:36:20.111Z,5.90
2019-02-15T10:37:20.082Z,6.50
2019-02-15T10:38:20.089Z,6.60
2019-02-15T10:39:20.097Z,6.40
2019-02-15T10:40:20.054Z,6.50
2019-02-15T10:41:20.097Z,6.60
2019-02-15T10:42:20.032Z,6.30
2019-02-15T10:43:20.091Z,6.10
2019-02-15T10:44:20.020Z,6.10
2019-02-15T10:45:20.008Z,6.50
2019-02-15T10:46:19.989Z,6.10
2019-02-15T10:47:25.008Z,6.00
2019-02-15T10:48:21.007Z,6.70
2019-02-15T10:49:19.948Z,6.40
2019-02-15T10:50:19.945Z,6.10
2019-02-15T10:51:19.931Z,6.20
2019-02-15T10:52:19.923Z,6.50
2019-02-15T10:53:19.917Z,6.20
2019-02-15T10:54:19.918Z,6.30
2019-02-15T10:55:19.894Z,5.80
2019-02-15T10:56:19.871Z,6.20
2019-02-15T10:57:19.874Z,6.00
2019-02-15T10:58:19.850Z,6.00
2019-02-15T10:59:19.877Z,6.20
2019-02-15T11:00:19.826Z,6.10
2019-02-15T11:01:19.833Z,5.80
2019-02-15T11:02:19.812Z,6.00
2019-02-15T11:03:19.800Z,5.80
2019-02-15T11:04:19.787Z,5.80
2019-02-15T11:05:19.779Z,5.60
2019-02-15T11:06:19.796Z,5.50
2019-02-15T11:07:19.752Z,5.70
2019-02-15T11:08:19.744Z,5.70
2019-02-15T11:09:19.752Z,5.40
2019-02-15T11:10:19.739Z,5.40
2019-02-15T11:11:19.754Z,5.30
2019-02-15T11:12:19.723Z,5.40
2019-02-15T11:13:19.689Z,5.90
2019-02-15T11:14:19.709Z,5.50
2019-02-15T11:15:19.674Z,5.70
2019-02-15T11:16:19.683Z,5.30
2019-02-15T11:17:19.686Z,5.40
2019-02-15T11:18:19.634Z,5.70
2019-02-15T11:19:19.651Z,5.70
2019-02-15T11:20:19.659Z,5.60
2019-02-15T11:21:19.630Z,5.30
2019-02-15T11:22:19.600Z,5.30
2019-02-15T11:23:19.594Z,5.20
2019-02-15T11:24:19.597Z,5.00
2019-02-15T11:25:19.582Z,5.50
2019-02-15T11:26:24.682Z,5.10
2019-02-15T11:27:20.541Z,5.30
2019-02-15T11:28:19.533Z,5.40
2019-02-15T11:29:19.526Z,5.30
2019-02-15T11:30:19.503Z,4.90
2019-02-15T11:31:19.493Z,5.00
2019-02-15T11:32:19.503Z,4.70
2019-02-15T11:33:19.467Z,4.60
2019-02-15T11:34:19.490Z,4.90
2019-02-15T11:35:19.453Z,4.60
2019-02-15T11:36:19.460Z,4.40
2019-02-15T11:37:19.426Z,4.50
2019-02-15T11:38:19.429Z,4.60
2019-02-15T11:39:19.402Z,4.60
2019-02-15T11:40:19.424Z,4.30
2019-02-15T11:41:19.383Z,4.70
2019-02-15T11:42:19.379Z,4.50
2019-02-15T11:43:19.390Z,4.90
2019-02-15T11:44:19.351Z,4.70
2019-02-15T11:45:19.397Z,4.60
2019-02-15T11:46:19.342Z,4.30
2019-02-15T11:47:19.323Z,4.10
2019-02-15T11:48:19.321Z,4.10
2019-02-15T11:49:19.297Z,4.40
2019-02-15T11:50:19.288Z,4.50
2019-02-15T11:51:19.313Z,4.20
2019-02-15T11:52:19.290Z,4.30
2019-02-15T11:53:19.261Z,4.10
2019-02-15T11:54:23.557Z,4.40
2019-02-15T11:55:19.232Z,4.60
2019-02-15T11:56:19.255Z,4.50
2019-02-15T11:57:19.219Z,4.80
2019-02-15T11:58:19.199Z,4.60
2019-02-15T11:59:19.196Z,4.90
2019-02-15T12:00:21.192Z,5.00
2019-02-15T12:01:19.205Z,5.00
2019-02-15T12:02:19.181Z,5.80
2019-02-15T12:03:19.147Z,4.80
2019-02-15T12:04:19.169Z,5.20
2019-02-15T12:05:19.121Z,5.60
2019-02-15T12:06:19.118Z,5.30
2019-02-15T12:07:19.105Z,5.10
2019-02-15T12:08:19.086Z,5.10
2019-02-15T12:09:19.088Z,4.30
2019-02-15T12:10:19.082Z,4.40
2019-02-15T12:11:19.069Z,4.10
2019-02-15T12:12:19.049Z,4.00
2019-02-15T12:13:19.054Z,4.00
2019-02-15T12:14:19.023Z,4.10
2019-02-15T12:15:19.049Z,4.00
2019-02-15T12:16:19.029Z,4.10
2019-02-15T12:17:18.994Z,4.00
2019-02-15T12:18:18.996Z,4.20
2019-02-15T12:19:18.972Z,4.20
2019-02-15T12:20:18.960Z,4.10
2019-02-15T12:21:18.976Z,4.30
2019-02-15T12:22:18.936Z,3.90
2019-02-15T12:23:18.970Z,3.90
2019-02-15T12:24:18.925Z,3.90
2019-02-15T12:25:18.904Z,4.10
2019-02-15T12:26:18.920Z,4.00
2019-02-15T12:27:18.906Z,3.80
2019-02-15T12:28:18.896Z,4.10
2019-02-15T12:29:18.918Z,3.80
2019-02-15T12:30:18.874Z,4.20
2019-02-15T12:31:18.838Z,4.10
2019-02-15T12:32:18.830Z,4.00
2019-02-15T12:33:18.823Z,4.70
2019-02-15T12:34:18.811Z,5.00
2019-02-15T12:35:18.815Z,4.90
2019-02-15T12:36:18.784Z,4.60
2019-02-15T12:37:18.784Z,4.60
2019-02-15T12:38:18.829Z,4.80
2019-02-15T12:39:18.752Z,4.30
2019-02-15T12:40:18.760Z,4.50
2019-02-15T12:41:18.741Z,4.00
2019-02-15T12:42:18.718Z,4.40
2019-02-15T12:43:18.713Z,4.20
2019-02-15T12:44:18.721Z,4.20
2019-02-15T12:45:18.728Z,4.10
2019-02-15T12:46:18.683Z,4.40
2019-02-15T12:47:18.667Z,4.10
2019-02-15T12:48:18.651Z,4.80
2019-02-15T12:49:18.683Z,4.60
2019-02-15T12:50:18.628Z,4.10
2019-02-15T12:51:18.618Z,3.80
2019-02-15T12:52:18.644Z,3.90
2019-02-15T12:53:18.681Z,3.80
2019-02-15T12:54:18.586Z,4.00
2019-02-15T12:55:18.593Z,3.80
2019-02-15T12:56:18.568Z,3.70
2019-02-15T12:57:18.554Z,3.80
2019-02-15T12:58:18.559Z,4.00
2019-02-15T12:59:18.611Z,3.70
2019-02-15T13:00:18.519Z,3.80
2019-02-15T13:01:18.514Z,3.80
2019-02-15T13:02:18.503Z,3.70
2019-02-15T13:03:18.505Z,3.60
2019-02-15T13:04:18.502Z,3.50
2019-02-15T13:05:18.463Z,3.20
2019-02-15T13:06:18.453Z,3.40
2019-02-15T13:07:18.452Z,3.20
2019-02-15T13:08:18.442Z,3.00
2019-02-15T13:09:18.430Z,3.40
2019-02-15T13:10:18.482Z,3.30
2019-02-15T13:11:18.406Z,3.20
2019-02-15T13:12:18.388Z,3.30
2019-02-15T13:13:18.391Z,3.10
2019-02-15T13:14:18.467Z,3.30
2019-02-15T13:15:18.363Z,3.30
2019-02-15T13:16:18.345Z,3.50
2019-02-15T13:17:24.494Z,3.60
2019-02-15T13:18:19.332Z,3.10